createdAt,value
2023-09-25T00:01:36.378Z,12.86
2023-09-25T00:04:03.543Z,12.83
2023-09-25T00:06:30.528Z,12.79
2023-09-25T00:08:57.536Z,12.80
2023-09-25T00:11:24.446Z,12.81
2023-09-25T00:13:51.459Z,12.78
2023-09-25T00:16:18.485Z,12.75
2023-09-25T00:18:45.654Z,12.72
2023-09-25T00:21:12.717Z,12.69
2023-09-25T00:23:39.863Z,12.75
2023-09-25T00:26:07.916Z,12.76
2023-09-25T00:28:36.707Z,12.71
2023-09-25T00:31:03.681Z,12.70
2023-09-25T00:33:32.141Z,12.68
2023-09-25T00:35:59.245Z,12.65
2023-09-25T00:38:27.023Z,12.62
2023-09-25T00:40:55.122Z,12.61
2023-09-25T00:43:22.013Z,12.62
2023-09-25T00:45:49.365Z,12.62
2023-09-25T00:48:29.807Z,12.67
2023-09-25T00:51:02.585Z,12.66
2023-09-25T00:53:31.207Z,12.65
2023-09-25T00:55:58.400Z,12.67
2023-09-25T00:58:26.079Z,12.70
2023-09-25T01:00:54.481Z,12.66
2023-09-25T01:03:21.800Z,12.65
2023-09-25T01:05:50.121Z,12.62
2023-09-25T01:08:17.086Z,12.62
2023-09-25T01:10:45.816Z,12.68
2023-09-25T01:13:13.004Z,12.69
2023-09-25T01:15:40.461Z,12.67
2023-09-25T01:18:09.531Z,12.66
2023-09-25T01:20:38.728Z,12.66
2023-09-25T01:23:05.850Z,12.66
2023-09-25T01:25:32.761Z,12.60
2023-09-25T01:27:59.873Z,12.65
2023-09-25T01:30:27.251Z,12.59
2023-09-25T01:32:54.949Z,12.50
2023-09-25T01:35:24.977Z,12.50
2023-09-25T01:37:56.821Z,12.48
2023-09-25T01:40:23.851Z,12.54
2023-09-25T01:42:50.833Z,12.56
2023-09-25T01:45:20.886Z,12.51
2023-09-25T01:47:53.579Z,12.53
2023-09-25T01:50:26.277Z,12.50
2023-09-25T01:52:56.657Z,12.46
2023-09-25T01:55:23.784Z,12.38
2023-09-25T01:57:50.819Z,12.36
2023-09-25T02:00:20.653Z,12.32
2023-09-25T02:02:48.476Z,12.36
2023-09-25T02:05:16.092Z,12.32
2023-09-25T02:07:43.326Z,12.28
2023-09-25T02:10:10.818Z,12.34
2023-09-25T02:12:38.223Z,12.32
2023-09-25T02:15:08.054Z,12.27
2023-09-25T02:17:35.700Z,12.26
2023-09-25T02:20:12.149Z,12.20
2023-09-25T02:22:40.831Z,12.22
2023-09-25T02:25:08.177Z,12.17
2023-09-25T02:27:35.288Z,12.21
2023-09-25T02:30:02.381Z,12.19
2023-09-25T02:32:30.650Z,12.14
2023-09-25T02:34:57.679Z,12.20
2023-09-25T02:37:24.555Z,12.14
2023-09-25T02:39:51.610Z,12.14
2023-09-25T02:42:18.596Z,12.16
2023-09-25T02:44:45.681Z,12.19
2023-09-25T02:47:12.592Z,12.12
2023-09-25T02:49:40.149Z,12.10
2023-09-25T02:52:07.377Z,12.10
2023-09-25T02:54:34.575Z,12.09
2023-09-25T02:57:01.525Z,12.05
2023-09-25T02:59:28.557Z,12.04
2023-09-25T03:01:55.513Z,12.02
2023-09-25T03:04:22.911Z,12.06
2023-09-25T03:06:49.874Z,12.01
2023-09-25T03:09:17.721Z,11.99
2023-09-25T03:11:45.881Z,11.96
2023-09-25T03:14:12.930Z,11.95
2023-09-25T03:16:42.202Z,11.98
2023-09-25T03:19:09.326Z,11.99
2023-09-25T03:21:38.640Z,12.03
2023-09-25T03:24:06.253Z,12.05
2023-09-25T03:26:33.885Z,12.02
2023-09-25T03:29:01.006Z,12.03
2023-09-25T03:31:28.082Z,12.05
2023-09-25T03:33:55.067Z,12.18
2023-09-25T03:36:22.238Z,12.11
2023-09-25T03:38:52.144Z,12.12
2023-09-25T03:41:19.372Z,12.12
2023-09-25T03:43:46.419Z,12.06
2023-09-25T03:46:13.316Z,12.10
2023-09-25T03:48:40.318Z,12.08
2023-09-25T03:51:07.344Z,12.06
2023-09-25T03:53:34.385Z,12.07
2023-09-25T03:56:01.315Z,12.06
2023-09-25T03:58:28.256Z,12.02
2023-09-25T04:00:55.293Z,12.00
2023-09-25T04:03:22.483Z,11.99
2023-09-25T04:05:49.461Z,11.97
2023-09-25T04:08:16.556Z,12.02
2023-09-25T04:10:45.062Z,12.05
2023-09-25T04:13:12.449Z,12.08
2023-09-25T04:15:39.443Z,12.08
2023-09-25T04:18:09.760Z,12.07
2023-09-25T04:20:39.802Z,11.98
2023-09-25T04:23:06.968Z,11.96
2023-09-25T04:25:34.051Z,11.99
2023-09-25T04:28:01.516Z,11.96
2023-09-25T04:30:29.522Z,11.93
2023-09-25T04:32:56.998Z,11.94
2023-09-25T04:35:25.266Z,11.88
2023-09-25T04:37:53.078Z,11.81
2023-09-25T04:40:24.501Z,11.84
2023-09-25T04:42:53.034Z,11.80
2023-09-25T04:45:21.057Z,11.81
2023-09-25T04:47:49.822Z,11.82
2023-09-25T04:50:20.273Z,11.86
2023-09-25T04:52:47.471Z,11.85
2023-09-25T04:55:14.856Z,11.76
2023-09-25T04:57:44.374Z,11.84
2023-09-25T05:00:26.948Z,11.82
2023-09-25T05:02:56.016Z,11.87
2023-09-25T05:05:23.816Z,11.83
2023-09-25T05:07:52.109Z,11.83
2023-09-25T05:10:24.102Z,11.85
2023-09-25T05:12:51.736Z,11.77
2023-09-25T05:15:19.218Z,11.75
2023-09-25T05:17:46.620Z,11.75
2023-09-25T05:20:20.053Z,11.76
2023-09-25T05:22:49.568Z,11.73
2023-09-25T05:25:18.145Z,11.70
2023-09-25T05:27:51.474Z,11.71
2023-09-25T05:30:20.399Z,11.68
2023-09-25T05:32:50.046Z,11.73
2023-09-25T05:35:18.630Z,11.74
2023-09-25T05:37:47.571Z,11.77
2023-09-25T05:40:16.297Z,11.78
2023-09-25T05:42:44.987Z,11.80
2023-09-25T05:45:13.423Z,11.87
2023-09-25T05:47:40.621Z,11.90
2023-09-25T05:50:08.315Z,11.88
2023-09-25T05:52:39.136Z,11.91
2023-09-25T05:55:11.719Z,11.97
2023-09-25T05:57:39.441Z,12.03
2023-09-25T06:00:15.132Z,12.01
2023-09-25T06:02:44.022Z,12.09
2023-09-25T06:05:15.292Z,12.16
2023-09-25T06:07:43.689Z,12.22
2023-09-25T06:10:11.675Z,12.19
2023-09-25T06:12:40.927Z,12.19
2023-09-25T06:15:11.997Z,12.26
2023-09-25T06:17:41.118Z,12.25
2023-09-25T06:20:17.332Z,12.34
2023-09-25T06:22:45.647Z,12.38
2023-09-25T06:25:13.047Z,12.39
2023-09-25T06:27:41.601Z,12.36
2023-09-25T06:30:10.925Z,12.43
2023-09-25T06:32:38.592Z,12.43
2023-09-25T06:35:07.914Z,12.46
2023-09-25T06:37:37.844Z,12.43
2023-09-25T06:40:17.285Z,12.53
2023-09-25T06:42:44.892Z,12.56
2023-09-25T06:45:12.363Z,12.57
2023-09-25T06:47:39.474Z,12.59
2023-09-25T06:50:07.078Z,12.65
2023-09-25T06:52:34.105Z,12.72
2023-09-25T06:55:01.123Z,12.76
2023-09-25T06:57:28.068Z,12.79
2023-09-25T06:59:55.255Z,12.80
2023-09-25T07:02:22.259Z,12.80
2023-09-25T07:04:49.761Z,12.85
2023-09-25T07:07:16.991Z,12.85
2023-09-25T07:09:44.452Z,12.96
2023-09-25T07:12:15.829Z,12.93
2023-09-25T07:14:49.913Z,13.01
2023-09-25T07:17:17.724Z,13.05
2023-09-25T07:19:44.703Z,13.07
2023-09-25T07:22:11.804Z,13.10
2023-09-25T07:24:39.761Z,13.12
2023-09-25T07:27:07.011Z,13.15
2023-09-25T07:29:41.981Z,13.20
2023-09-25T07:32:09.806Z,13.19
2023-09-25T07:34:36.972Z,13.25
2023-09-25T07:37:06.184Z,13.25
2023-09-25T07:39:36.366Z,13.34
2023-09-25T07:42:03.607Z,13.34
2023-09-25T07:44:34.859Z,13.42
2023-09-25T07:47:07.879Z,13.47
2023-09-25T07:49:41.775Z,13.54
2023-09-25T07:52:19.477Z,13.53
2023-09-25T07:54:48.113Z,13.54
2023-09-25T07:57:16.677Z,13.59
2023-09-25T07:59:44.106Z,13.68
2023-09-25T08:02:13.203Z,13.75
2023-09-25T08:04:40.182Z,13.87
2023-09-25T08:07:07.083Z,13.91
2023-09-25T08:09:34.156Z,13.88
2023-09-25T08:12:01.071Z,13.93
2023-09-25T08:14:27.970Z,13.97
2023-09-25T08:16:55.173Z,14.02
2023-09-25T08:19:24.154Z,14.04
2023-09-25T08:21:54.950Z,14.11
2023-09-25T08:24:22.246Z,14.27
2023-09-25T08:26:49.354Z,14.32
2023-09-25T08:29:17.806Z,14.38
2023-09-25T08:31:45.546Z,14.47
2023-09-25T08:34:13.015Z,14.51
2023-09-25T08:36:40.192Z,14.61
2023-09-25T08:39:10.297Z,14.70
2023-09-25T08:41:38.332Z,14.71
2023-09-25T08:44:05.487Z,14.74
2023-09-25T08:46:32.772Z,14.77
2023-09-25T08:49:02.631Z,14.76
2023-09-25T08:51:36.455Z,14.74
2023-09-25T08:54:04.573Z,14.80
2023-09-25T08:56:32.932Z,14.87
2023-09-25T08:59:03.849Z,14.94
2023-09-25T09:01:31.424Z,15.07
2023-09-25T09:03:58.526Z,15.07
2023-09-25T09:06:25.804Z,15.14
2023-09-25T09:08:53.187Z,15.15
2023-09-25T09:11:22.473Z,15.23
2023-09-25T09:13:50.515Z,15.37
2023-09-25T09:16:21.372Z,15.50
2023-09-25T09:18:49.259Z,15.67
2023-09-25T09:21:28.494Z,15.83
2023-09-25T09:23:57.825Z,16.02
2023-09-25T09:26:25.756Z,16.23
2023-09-25T09:28:55.419Z,16.41
2023-09-25T09:31:23.022Z,16.53
2023-09-25T09:33:50.214Z,16.78
2023-09-25T09:36:17.534Z,17.12
2023-09-25T09:38:47.543Z,17.32
2023-09-25T09:41:16.069Z,17.70
2023-09-25T09:43:42.986Z,18.17
2023-09-25T09:46:14.403Z,18.32
2023-09-25T09:48:43.176Z,18.53
2023-09-25T09:51:10.648Z,18.83
2023-09-25T09:53:38.240Z,19.32
2023-09-25T09:56:05.243Z,19.01
2023-09-25T09:58:33.240Z,19.15
2023-09-25T10:01:01.631Z,19.13
2023-09-25T10:03:30.987Z,19.18
2023-09-25T10:05:58.470Z,19.60
2023-09-25T10:08:26.397Z,19.73
2023-09-25T10:10:53.664Z,20.69
2023-09-25T10:13:31.131Z,20.85
2023-09-25T10:16:00.112Z,20.82
2023-09-25T10:18:31.277Z,20.40
2023-09-25T10:21:10.631Z,20.04
2023-09-25T10:23:42.393Z,19.73
2023-09-25T10:26:30.310Z,19.28
2023-09-25T10:29:13.996Z,19.59
2023-09-25T10:31:46.765Z,19.43
2023-09-25T10:34:14.034Z,19.27
2023-09-25T10:36:46.147Z,19.29
2023-09-25T10:39:17.777Z,19.13
2023-09-25T10:41:48.550Z,18.91
2023-09-25T10:44:16.989Z,19.03
2023-09-25T10:46:45.193Z,19.47
2023-09-25T10:49:12.786Z,19.51
2023-09-25T10:51:39.886Z,19.99
2023-09-25T10:54:07.015Z,20.41
2023-09-25T10:56:34.585Z,20.91
2023-09-25T10:59:02.650Z,20.99
2023-09-25T11:01:33.189Z,20.92
2023-09-25T11:04:01.574Z,21.01
2023-09-25T11:06:30.351Z,21.36
2023-09-25T11:09:06.888Z,21.40
2023-09-25T11:11:34.129Z,21.52
2023-09-25T11:14:01.761Z,21.59
2023-09-25T11:16:30.013Z,21.71
2023-09-25T11:19:07.254Z,21.57
2023-09-25T11:21:34.311Z,22.34
2023-09-25T11:24:05.578Z,22.70
2023-09-25T11:26:37.726Z,22.79
2023-09-25T11:29:09.211Z,22.48
2023-09-25T11:31:54.308Z,22.36
2023-09-25T11:34:25.104Z,22.05
2023-09-25T11:36:52.157Z,22.61
2023-09-25T11:39:19.342Z,21.70
2023-09-25T11:41:47.099Z,21.57
2023-09-25T11:44:15.383Z,21.37
2023-09-25T11:46:44.047Z,21.46
2023-09-25T11:49:11.338Z,21.34
2023-09-25T11:51:38.491Z,20.97
2023-09-25T11:54:06.284Z,21.15
2023-09-25T11:56:34.554Z,20.97
2023-09-25T11:59:01.743Z,21.01
2023-09-25T12:01:29.842Z,21.04
2023-09-25T12:03:57.480Z,21.04
2023-09-25T12:06:25.936Z,20.69
2023-09-25T12:08:53.219Z,20.58
2023-09-25T12:11:20.338Z,21.24
2023-09-25T12:13:47.297Z,21.47
2023-09-25T12:16:14.518Z,22.12
2023-09-25T12:18:42.221Z,22.36
2023-09-25T12:21:10.503Z,22.83
2023-09-25T12:23:37.599Z,22.54
2023-09-25T12:26:05.696Z,21.81
2023-09-25T12:28:35.072Z,22.01
2023-09-25T12:31:02.148Z,21.56
2023-09-25T12:33:29.167Z,21.36
2023-09-25T12:35:56.236Z,21.39
2023-09-25T12:38:23.133Z,21.17
2023-09-25T12:40:50.144Z,20.92
2023-09-25T12:43:17.262Z,21.11
2023-09-25T12:45:44.445Z,21.10
2023-09-25T12:48:11.466Z,21.38
2023-09-25T12:50:38.644Z,21.60
2023-09-25T12:53:05.924Z,21.51
2023-09-25T12:55:35.222Z,21.82
2023-09-25T12:58:03.101Z,22.59
2023-09-25T13:00:30.156Z,23.25
2023-09-25T13:02:57.237Z,22.59
2023-09-25T13:05:24.618Z,22.37
2023-09-25T13:07:51.460Z,22.03
2023-09-25T13:10:19.942Z,21.99
2023-09-25T13:12:47.073Z,21.99
2023-09-25T13:15:15.797Z,22.22
2023-09-25T13:17:42.931Z,22.81
2023-09-25T13:20:11.150Z,23.43
2023-09-25T13:22:38.605Z,23.17
2023-09-25T13:25:09.334Z,22.22
2023-09-25T13:27:38.300Z,22.14
2023-09-25T13:30:12.906Z,21.95
2023-09-25T13:32:40.138Z,21.74
2023-09-25T13:35:10.952Z,21.53
2023-09-25T13:37:38.805Z,20.96
2023-09-25T13:40:12.227Z,20.73
2023-09-25T13:42:39.828Z,20.80
2023-09-25T13:45:08.186Z,20.55
2023-09-25T13:47:35.085Z,20.82
2023-09-25T13:50:02.791Z,20.88
2023-09-25T13:52:29.931Z,20.86
2023-09-25T13:54:58.354Z,20.58
2023-09-25T13:57:25.605Z,20.50
2023-09-25T13:59:52.870Z,20.40
2023-09-25T14:02:19.998Z,20.31
2023-09-25T14:04:46.996Z,20.59
2023-09-25T14:07:14.189Z,20.84
2023-09-25T14:09:42.089Z,21.02
2023-09-25T14:12:10.548Z,20.88
2023-09-25T14:14:47.050Z,20.93
2023-09-25T14:17:14.047Z,20.74
2023-09-25T14:19:40.964Z,20.71
2023-09-25T14:22:08.191Z,20.59
2023-09-25T14:24:35.468Z,20.40
2023-09-25T14:27:02.833Z,20.33
2023-09-25T14:29:31.587Z,20.22
2023-09-25T14:31:59.459Z,20.24
2023-09-25T14:34:26.434Z,20.14
2023-09-25T14:36:56.175Z,20.19
2023-09-25T14:39:30.046Z,20.40
2023-09-25T14:41:57.768Z,20.44
2023-09-25T14:44:25.062Z,20.36
2023-09-25T14:46:52.819Z,20.36
2023-09-25T14:49:21.321Z,20.26
2023-09-25T14:51:48.842Z,20.50
2023-09-25T14:54:15.840Z,20.44
2023-09-25T14:56:42.763Z,20.43
2023-09-25T14:59:09.990Z,20.31
2023-09-25T15:01:36.975Z,20.46
2023-09-25T15:04:04.799Z,20.49
2023-09-25T15:06:32.175Z,20.49
2023-09-25T15:08:59.152Z,20.59
2023-09-25T15:11:26.155Z,20.67
2023-09-25T15:13:53.140Z,20.57
2023-09-25T15:16:20.427Z,20.40
2023-09-25T15:18:47.598Z,20.17
2023-09-25T15:21:14.613Z,20.28
2023-09-25T15:23:41.994Z,20.15
2023-09-25T15:26:08.957Z,20.15
2023-09-25T15:28:36.088Z,20.07
2023-09-25T15:31:03.292Z,20.17
2023-09-25T15:33:30.480Z,19.96
2023-09-25T15:35:59.240Z,19.89
2023-09-25T15:38:26.211Z,19.85
2023-09-25T15:40:53.266Z,19.76
2023-09-25T15:43:20.624Z,19.57
2023-09-25T15:45:47.880Z,19.55
2023-09-25T15:48:14.982Z,19.55
2023-09-25T15:50:42.057Z,19.58
2023-09-25T15:53:09.036Z,19.51
2023-09-25T15:55:37.374Z,19.47
2023-09-25T15:58:04.998Z,19.49
2023-09-25T16:00:31.950Z,19.49
2023-09-25T16:02:59.142Z,19.49
2023-09-25T16:05:26.226Z,19.51
2023-09-25T16:07:53.227Z,19.49
2023-09-25T16:10:20.110Z,19.52
2023-09-25T16:12:47.161Z,19.55
2023-09-25T16:15:14.116Z,19.54
2023-09-25T16:17:42.142Z,19.54
2023-09-25T16:20:09.284Z,19.49
2023-09-25T16:22:36.240Z,19.42
2023-09-25T16:25:03.390Z,19.39
2023-09-25T16:27:31.991Z,19.36
2023-09-25T16:30:00.406Z,19.30
2023-09-25T16:32:27.308Z,19.23
2023-09-25T16:34:54.286Z,19.17
2023-09-25T16:37:22.515Z,19.18
2023-09-25T16:39:49.774Z,19.09
2023-09-25T16:42:16.747Z,19.07
2023-09-25T16:44:44.000Z,19.03
2023-09-25T16:47:11.213Z,19.02
2023-09-25T16:49:38.278Z,18.97
2023-09-25T16:52:05.367Z,18.92
2023-09-25T16:54:32.518Z,18.82
2023-09-25T16:56:59.511Z,18.83
2023-09-25T16:59:26.425Z,18.78
2023-09-25T17:01:53.571Z,18.70
2023-09-25T17:04:20.803Z,18.64
2023-09-25T17:06:47.960Z,18.58
2023-09-25T17:09:14.808Z,18.63
2023-09-25T17:11:41.838Z,18.60
2023-09-25T17:14:11.047Z,18.56
2023-09-25T17:16:38.503Z,18.54
2023-09-25T17:19:05.598Z,18.50
2023-09-25T17:21:32.729Z,18.47
2023-09-25T17:23:59.749Z,18.46
2023-09-25T17:26:26.681Z,18.46
2023-09-25T17:28:53.666Z,18.38
2023-09-25T17:31:22.256Z,18.35
2023-09-25T17:33:50.876Z,18.31
2023-09-25T17:36:18.558Z,18.25
2023-09-25T17:38:45.613Z,18.24
2023-09-25T17:41:12.681Z,18.20
2023-09-25T17:43:39.848Z,18.14
2023-09-25T17:46:09.291Z,18.09
2023-09-25T17:48:40.845Z,18.00
2023-09-25T17:51:08.108Z,17.88
2023-09-25T17:53:35.253Z,17.76
2023-09-25T17:56:02.279Z,17.61
2023-09-25T17:58:31.455Z,17.47
2023-09-25T18:01:00.670Z,17.35
2023-09-25T18:03:28.829Z,17.25
2023-09-25T18:05:55.867Z,17.12
2023-09-25T18:08:23.212Z,17.00
2023-09-25T18:10:50.264Z,16.90
2023-09-25T18:13:19.781Z,16.81
2023-09-25T18:15:49.678Z,16.69
2023-09-25T18:18:16.754Z,16.61
2023-09-25T18:20:44.116Z,16.52
2023-09-25T18:23:11.706Z,16.44
2023-09-25T18:25:39.918Z,16.38
2023-09-25T18:28:07.140Z,16.33
2023-09-25T18:30:34.083Z,16.27
2023-09-25T18:33:04.416Z,16.21
2023-09-25T18:35:31.553Z,16.13
2023-09-25T18:37:58.563Z,16.08
2023-09-25T18:40:25.416Z,16.03
2023-09-25T18:42:53.091Z,15.99
2023-09-25T18:45:20.078Z,15.96
2023-09-25T18:47:47.222Z,15.89
2023-09-25T18:50:14.914Z,15.83
2023-09-25T18:52:41.945Z,15.76
2023-09-25T18:55:09.131Z,15.74
2023-09-25T18:57:36.102Z,15.63
2023-09-25T19:00:04.282Z,15.56
2023-09-25T19:02:31.196Z,15.52
2023-09-25T19:04:58.236Z,15.44
2023-09-25T19:07:25.554Z,15.39
2023-09-25T19:09:52.584Z,15.37
2023-09-25T19:12:19.883Z,15.41
2023-09-25T19:14:47.735Z,15.41
2023-09-25T19:17:14.884Z,15.36
2023-09-25T19:19:41.966Z,15.33
2023-09-25T19:22:09.873Z,15.30
2023-09-25T19:24:37.458Z,15.30
2023-09-25T19:27:05.672Z,15.27
2023-09-25T19:29:33.203Z,15.26
2023-09-25T19:32:00.377Z,15.26
2023-09-25T19:34:28.228Z,15.32
2023-09-25T19:36:55.275Z,15.29
2023-09-25T19:39:22.445Z,15.25
2023-09-25T19:41:49.386Z,15.25
2023-09-25T19:44:17.575Z,15.24
2023-09-25T19:46:44.744Z,15.24
2023-09-25T19:49:12.121Z,15.16
2023-09-25T19:51:40.015Z,15.11
2023-09-25T19:54:07.967Z,15.07
2023-09-25T19:56:34.840Z,15.01
2023-09-25T19:59:02.173Z,14.95
2023-09-25T20:01:29.497Z,14.92
2023-09-25T20:03:57.007Z,14.87
2023-09-25T20:06:24.490Z,14.84
2023-09-25T20:08:51.682Z,14.80
2023-09-25T20:11:18.805Z,14.79
2023-09-25T20:13:45.732Z,14.74
2023-09-25T20:16:12.907Z,14.69
2023-09-25T20:18:40.143Z,14.71
2023-09-25T20:21:07.679Z,14.64
2023-09-25T20:23:34.785Z,14.61
2023-09-25T20:26:06.594Z,14.59
2023-09-25T20:28:33.645Z,14.56
2023-09-25T20:31:00.653Z,14.52
2023-09-25T20:33:28.079Z,14.46
2023-09-25T20:35:56.110Z,14.44
2023-09-25T20:38:25.422Z,14.45
2023-09-25T20:40:52.662Z,14.44
2023-09-25T20:43:20.000Z,14.56
2023-09-25T20:45:47.207Z,14.64
2023-09-25T20:48:14.244Z,14.64
2023-09-25T20:50:41.956Z,14.60
2023-09-25T20:53:08.995Z,14.58
2023-09-25T20:55:35.980Z,14.52
2023-09-25T20:58:04.627Z,14.53
2023-09-25T21:00:32.024Z,14.45
2023-09-25T21:02:59.540Z,14.44
2023-09-25T21:05:28.013Z,14.41
2023-09-25T21:07:56.031Z,14.41
2023-09-25T21:10:23.282Z,14.38
2023-09-25T21:12:50.322Z,14.40
2023-09-25T21:15:17.744Z,14.47
2023-09-25T21:17:44.911Z,14.49
2023-09-25T21:20:12.665Z,14.47
2023-09-25T21:22:39.984Z,14.45
2023-09-25T21:25:09.661Z,14.44
2023-09-25T21:27:36.968Z,14.47
2023-09-25T21:30:04.299Z,14.44
2023-09-25T21:32:31.440Z,14.45
2023-09-25T21:34:58.392Z,14.45
2023-09-25T21:37:25.595Z,14.46
2023-09-25T21:39:52.606Z,14.39
2023-09-25T21:42:19.832Z,14.37
2023-09-25T21:44:46.867Z,14.33
2023-09-25T21:47:13.854Z,14.32
2023-09-25T21:49:41.104Z,14.35
2023-09-25T21:52:08.051Z,14.36
2023-09-25T21:54:35.109Z,14.37
2023-09-25T21:57:02.092Z,14.46
2023-09-25T21:59:30.913Z,14.52
2023-09-25T22:01:57.922Z,14.53
2023-09-25T22:04:25.142Z,14.56
2023-09-25T22:06:52.310Z,14.74
2023-09-25T22:09:20.181Z,14.76
2023-09-25T22:11:47.018Z,14.78
2023-09-25T22:14:14.086Z,14.84
2023-09-25T22:16:43.232Z,14.84
2023-09-25T22:19:10.604Z,14.83
2023-09-25T22:21:37.551Z,14.86
2023-09-25T22:24:04.570Z,14.90
2023-09-25T22:26:31.673Z,14.90
2023-09-25T22:28:58.697Z,14.88
2023-09-25T22:31:25.841Z,14.88
2023-09-25T22:33:53.950Z,14.90
2023-09-25T22:36:21.265Z,14.90
2023-09-25T22:38:48.544Z,14.94
2023-09-25T22:41:15.969Z,14.93
2023-09-25T22:43:47.715Z,14.87
2023-09-25T22:46:14.911Z,14.80
2023-09-25T22:48:42.138Z,14.75
2023-09-25T22:51:09.290Z,14.73
2023-09-25T22:53:36.225Z,14.72
2023-09-25T22:56:04.723Z,14.67
2023-09-25T22:58:31.686Z,14.67
2023-09-25T23:00:58.845Z,14.69
2023-09-25T23:03:25.913Z,14.66
2023-09-25T23:05:52.944Z,14.67
2023-09-25T23:08:19.865Z,14.69
2023-09-25T23:10:47.008Z,14.65
2023-09-25T23:13:14.144Z,14.67
2023-09-25T23:15:41.376Z,14.68
2023-09-25T23:18:08.793Z,14.65
2023-09-25T23:20:35.829Z,14.67
2023-09-25T23:23:02.741Z,14.63
2023-09-25T23:25:29.773Z,14.62
2023-09-25T23:27:56.981Z,14.61
2023-09-25T23:30:25.028Z,14.60
2023-09-25T23:32:52.693Z,14.56
2023-09-25T23:35:20.731Z,14.53
2023-09-25T23:37:48.703Z,14.52
2023-09-25T23:40:18.355Z,14.47
2023-09-25T23:42:46.969Z,14.38
2023-09-25T23:45:15.347Z,14.34
2023-09-25T23:47:42.960Z,14.30
2023-09-25T23:50:11.909Z,14.28
2023-09-25T23:52:41.023Z,14.24
2023-09-25T23:55:10.073Z,14.24
2023-09-25T23:57:39.758Z,14.31
